Time;durP1;ratioP1;P1;durP2;ratioP2;P2;SDS_P1;SDS_P2;PMS_P1;PMS_P2;Temp;Humidity;BMP_temperature;BMP_pressure;BME280_temperature;BME280_humidity;BME280_pressure;Samples;Min_cycle;Max_cycle;Signal;HPM_P1;HPM_P2
2023/03/20 00:00:32;;;;;;;9.20;5.70;;;;;;;11.33;67.24;96398.94;5029811;28;20180;-69
2023/03/20 00:02:59;;;;;;;5.60;4.63;;;;;;;11.32;67.10;96397.22;5029790;28;20178;-70
2023/03/20 00:05:27;;;;;;;5.63;5.13;;;;;;;11.33;66.53;96401.56;5029675;28;20430;-70
2023/03/20 00:07:53;;;;;;;6.37;5.70;;;;;;;11.37;66.96;96395.25;5029429;28;20422;-70
2023/03/20 00:10:20;;;;;;;5.87;5.37;;;;;;;11.30;67.30;96406.97;5029622;28;20421;-70
2023/03/20 00:12:47;;;;;;;6.60;5.90;;;;;;;11.32;67.49;96402.50;5029695;28;20582;-72
2023/03/20 00:15:36;;;;;;;26.30;9.33;;;;;;;11.38;67.19;96397.78;5029255;28;20438;-70
2023/03/20 00:18:03;;;;;;;11.13;5.30;;;;;;;11.44;66.29;96405.38;5027890;28;20845;-69
2023/03/20 00:20:28;;;;;;;9.07;4.30;;;;;;;11.36;66.48;96396.16;5028120;28;20410;-69
2023/03/20 00:22:54;;;;;;;4.73;4.27;;;;;;;11.31;65.72;96408.66;5029490;28;20415;-70
2023/03/20 00:25:24;;;;;;;3.50;3.20;;;;;;;11.28;65.52;96396.50;5029929;28;20664;-70
2023/03/20 00:27:49;;;;;;;4.57;3.53;;;;;;;11.25;65.32;96395.81;5029502;28;20752;-70
2023/03/20 00:30:17;;;;;;;6.60;4.10;;;;;;;11.22;65.14;96404.69;5028965;28;20414;-70
2023/03/20 00:32:43;;;;;;;4.20;3.70;;;;;;;11.27;64.78;96401.81;5028002;28;20526;-70
2023/03/20 00:35:18;;;;;;;4.00;3.70;;;;;;;11.27;65.34;96402.69;5029284;28;20434;-70
2023/03/20 00:37:43;;;;;;;4.17;3.87;;;;;;;11.19;65.53;96395.16;5028728;28;20198;-70
2023/03/20 00:40:10;;;;;;;4.00;3.60;;;;;;;11.16;65.48;96392.69;5029126;28;21103;-69
2023/03/20 00:42:35;;;;;;;4.03;3.40;;;;;;;11.15;65.56;96398.00;5029078;28;20823;-70
2023/03/20 00:45:01;;;;;;;4.70;4.30;;;;;;;11.16;65.65;96397.09;5028975;28;20442;-69
2023/03/20 00:47:29;;;;;;;7.07;4.00;;;;;;;11.21;65.74;96395.94;5028747;28;20168;-69
2023/03/20 00:49:57;;;;;;;13.80;5.00;;;;;;;11.12;65.98;96393.72;5028827;28;20404;-70
2023/03/20 00:52:23;;;;;;;5.40;4.87;;;;;;;11.11;66.62;96396.44;5028830;28;20417;-69
2023/03/20 00:54:49;;;;;;;36.80;8.10;;;;;;;11.04;67.09;96388.00;5028776;28;20438;-70
2023/03/20 00:57:28;;;;;;;24.70;7.10;;;;;;;11.00;67.09;96389.91;5028353;28;20201;-70
2023/03/20 00:59:58;;;;;;;26.63;8.80;;;;;;;10.98;66.88;96386.53;5028924;28;20228;-70
2023/03/20 01:02:27;;;;;;;10.17;5.80;;;;;;;10.92;66.92;96383.31;5028512;28;20433;-70
2023/03/20 01:04:53;;;;;;;8.57;5.80;;;;;;;10.88;66.92;96387.00;5026668;28;20449;-69
2023/03/20 01:07:19;;;;;;;5.87;5.20;;;;;;;10.93;66.65;96385.00;5028311;28;20403;-70
2023/03/20 01:09:46;;;;;;;5.53;5.03;;;;;;;10.83;66.96;96399.47;5028625;28;20402;-69
2023/03/20 01:12:13;;;;;;;5.80;5.30;;;;;;;10.84;66.99;96386.25;5028277;28;20479;-69
2023/03/20 01:14:39;;;;;;;5.30;4.80;;;;;;;10.85;66.74;96392.41;5028500;28;21272;-70
2023/03/20 01:17:04;;;;;;;5.90;5.03;;;;;;;10.82;67.15;96388.13;5027959;28;20473;-70
2023/03/20 01:19:30;;;;;;;11.03;6.00;;;;;;;10.87;67.07;96386.16;5028249;28;20182;-69
2023/03/20 01:21:55;;;;;;;5.77;5.13;;;;;;;10.80;66.52;96396.06;5028163;28;20250;-69
2023/03/20 01:24:21;;;;;;;6.93;5.20;;;;;;;10.67;67.26;96388.81;5028173;28;20235;-70
2023/03/20 01:26:46;;;;;;;6.07;5.57;;;;;;;10.73;67.06;96393.78;5027749;28;20249;-69
2023/03/20 01:29:23;;;;;;;8.87;6.00;;;;;;;10.71;66.64;96395.63;5027897;28;20172;-69
2023/03/20 01:31:50;;;;;;;7.47;6.73;;;;;;;10.61;67.18;96405.69;5027939;28;20240;-69
2023/03/20 01:34:16;;;;;;;5.90;5.40;;;;;;;10.59;67.38;96399.66;5027900;28;20426;-70
2023/03/20 01:36:48;;;;;;;5.57;5.03;;;;;;;10.51;66.89;96396.50;5027627;28;20442;-69
2023/03/20 01:39:14;;;;;;;6.17;5.43;;;;;;;10.58;66.49;96403.19;5027821;28;20835;-70
2023/03/20 01:41:40;;;;;;;6.53;5.60;;;;;;;10.50;66.95;96403.50;5028527;28;20418;-69
2023/03/20 01:44:22;;;;;;;23.10;7.20;;;;;;;10.58;66.11;96400.56;5028018;28;20410;-70
2023/03/20 01:46:50;;;;;;;6.93;5.00;;;;;;;10.52;65.82;96393.81;5027653;28;20178;-70
2023/03/20 01:49:18;;;;;;;5.77;5.27;;;;;;;10.40;66.76;96388.25;5027585;28;20414;-70
2023/03/20 01:51:45;;;;;;;5.87;4.63;;;;;;;10.29;66.82;96394.81;5027652;28;20421;-70
2023/03/20 01:54:36;;;;;;;4.33;3.93;;;;;;;10.31;66.85;96392.97;5027805;28;20497;-69
2023/03/20 01:57:23;;;;;;;8.43;4.67;;;;;;;10.31;67.15;96392.97;5026724;28;20458;-69
2023/03/20 01:59:52;;;;;;;4.70;3.80;;;;;;;10.27;67.09;96391.34;5027237;28;21085;-68
2023/03/20 02:02:21;;;;;;;6.10;5.60;;;;;;;10.26;66.70;96394.06;5027738;28;20410;-69
2023/03/20 02:04:51;;;;;;;4.17;3.70;;;;;;;10.26;66.97;96391.44;5027658;28;20426;-70
2023/03/20 02:07:20;;;;;;;4.90;4.40;;;;;;;10.32;66.82;96392.06;5027952;28;20399;-70
2023/03/20 02:09:47;;;;;;;4.60;4.20;;;;;;;10.46;66.54;96395.84;5027806;28;20538;-70
2023/03/20 02:12:13;;;;;;;4.73;4.23;;;;;;;10.32;66.77;96399.94;5027615;28;20859;-70
2023/03/20 02:14:39;;;;;;;5.33;4.17;;;;;;;10.26;66.56;96394.91;5027336;28;20525;-70
2023/03/20 02:17:07;;;;;;;4.40;4.00;;;;;;;10.36;66.30;96398.00;5026210;28;20545;-70
2023/03/20 02:19:51;;;;;;;5.13;4.63;;;;;;;10.39;66.11;96390.00;5027165;28;20178;-70
2023/03/20 02:22:25;;;;;;;4.87;4.47;;;;;;;10.29;65.78;96392.19;5027457;28;20740;-70
2023/03/20 02:25:14;;;;;;;4.67;4.27;;;;;;;10.32;65.98;96393.81;5027168;28;20430;-70
2023/03/20 02:28:11;;;;;;;5.00;4.00;;;;;;;10.22;66.53;96397.72;5026847;28;20687;-70
2023/03/20 02:30:51;;;;;;;5.00;4.50;;;;;;;10.34;66.44;96399.84;5026844;28;20406;-70
2023/03/20 02:33:35;;;;;;;6.87;4.57;;;;;;;10.35;65.95;96407.66;5027007;28;20486;-70
2023/03/20 02:36:18;;;;;;;5.20;4.80;;;;;;;10.25;66.19;96405.44;5026642;28;20430;-70
2023/03/20 02:39:05;;;;;;;6.87;5.00;;;;;;;10.16;66.86;96414.59;5026801;28;20452;-70
2023/03/20 02:41:36;;;;;;;11.73;5.33;;;;;;;10.10;67.02;96406.97;5026830;28;20926;-70
2023/03/20 02:44:19;;;;;;;6.87;4.53;;;;;;;10.06;66.87;96418.47;5026846;28;20406;-70
2023/03/20 02:47:05;;;;;;;4.37;3.97;;;;;;;10.16;66.47;96409.34;5025277;28;20804;-70
2023/03/20 02:49:41;;;;;;;9.07;5.07;;;;;;;10.09;66.64;96415.75;5026511;28;20448;-70
2023/03/20 02:52:30;;;;;;;7.20;4.77;;;;;;;10.03;66.32;96416.84;5026619;28;20418;-70
2023/03/20 02:55:15;;;;;;;5.70;4.70;;;;;;;10.06;66.81;96428.97;5026234;28;20586;-68
2023/03/20 02:57:59;;;;;;;7.13;4.80;;;;;;;9.96;66.65;96423.25;5026128;28;20873;-68
2023/03/20 03:00:51;;;;;;;5.10;4.60;;;;;;;9.94;67.22;96432.94;5026584;28;20414;-69
2023/03/20 03:03:23;;;;;;;6.17;5.07;;;;;;;9.94;66.67;96431.22;5026676;28;20410;-69
2023/03/20 03:06:08;;;;;;;9.53;4.83;;;;;;;9.96;67.18;96433.75;5026355;28;20434;-70
2023/03/20 03:08:39;;;;;;;6.57;5.30;;;;;;;9.89;66.81;96438.38;5026748;28;20410;-68
2023/03/20 03:11:07;;;;;;;4.83;4.40;;;;;;;9.98;66.49;96433.69;5026732;28;20413;-68
2023/03/20 03:13:37;;;;;;;5.23;4.83;;;;;;;9.82;67.12;96444.78;5026631;28;20442;-69
2023/03/20 03:16:09;;;;;;;7.43;5.50;;;;;;;9.82;67.46;96443.94;5026351;28;20770;-69
2023/03/20 03:18:36;;;;;;;13.57;6.20;;;;;;;9.85;67.13;96442.06;5026611;28;20462;-69
2023/03/20 03:21:04;;;;;;;14.13;7.67;;;;;;;9.87;66.89;96445.44;5026502;28;20591;-69
2023/03/20 03:23:48;;;;;;;5.90;5.30;;;;;;;9.86;66.89;96445.53;5026747;28;20411;-69
2023/03/20 03:26:24;;;;;;;11.93;5.87;;;;;;;9.82;67.01;96442.16;5026289;28;20969;-69
2023/03/20 03:28:57;;;;;;;9.47;5.90;;;;;;;9.84;66.89;96447.34;5029389;28;21067;-69
2023/03/20 03:31:24;;;;;;;9.67;6.53;;;;;;;9.81;67.42;96450.09;5030735;28;20418;-69
2023/03/20 03:33:54;;;;;;;7.20;5.83;;;;;;;9.91;66.78;96447.03;5030317;28;20422;-69
2023/03/20 03:37:09;;;;;;;6.63;5.63;;;;;;;9.85;66.76;96447.31;5029846;28;20440;-69
2023/03/20 03:39:52;;;;;;;6.87;6.17;;;;;;;9.81;67.45;96450.94;5027747;28;20426;-69
2023/03/20 03:42:18;;;;;;;10.33;6.73;;;;;;;9.90;66.75;96454.97;5030001;28;20410;-69
2023/03/20 03:45:14;;;;;;;9.93;6.17;;;;;;;9.95;66.17;96458.25;5029813;28;20515;-69
2023/03/20 03:47:49;;;;;;;7.57;6.40;;;;;;;9.88;67.29;96457.66;5029809;28;20175;-68
2023/03/20 03:50:33;;;;;;;6.13;5.60;;;;;;;9.82;67.02;96459.66;5030039;28;20920;-69
2023/03/20 03:53:03;;;;;;;9.23;6.23;;;;;;;9.91;66.55;96470.63;5028462;28;20410;-69
2023/03/20 03:55:37;;;;;;;8.27;6.13;;;;;;;9.93;66.98;96463.56;5030224;28;20516;-69
2023/03/20 03:58:11;;;;;;;9.73;6.50;;;;;;;9.87;66.97;96465.56;5029730;28;20978;-69
2023/03/20 04:00:41;;;;;;;6.63;6.03;;;;;;;9.82;67.51;96463.13;5029760;28;20406;-70
2023/03/20 04:03:08;;;;;;;6.97;6.27;;;;;;;9.77;67.79;96461.63;5029910;28;20931;-71
2023/03/20 04:05:40;;;;;;;8.50;5.83;;;;;;;9.69;68.17;96467.16;5029726;28;20433;-68
2023/03/20 04:08:06;;;;;;;9.63;6.30;;;;;;;9.64;68.28;96469.97;5029622;28;20394;-70
2023/03/20 04:10:31;;;;;;;8.33;7.40;;;;;;;9.65;67.58;96457.72;5029778;28;20429;-70
2023/03/20 04:12:57;;;;;;;7.87;7.17;;;;;;;9.70;67.75;96467.09;5029878;28;20406;-68
2023/03/20 04:15:22;;;;;;;9.10;7.13;;;;;;;9.66;68.17;96475.13;5029446;28;20192;-68
2023/03/20 04:17:48;;;;;;;36.57;9.93;;;;;;;9.70;67.77;96474.09;5029252;28;20249;-69
2023/03/20 04:20:15;;;;;;;11.93;8.67;;;;;;;9.72;67.80;96472.28;5029450;28;20914;-68
2023/03/20 04:22:40;;;;;;;7.77;6.97;;;;;;;9.74;67.57;96473.06;5029450;28;20199;-69
2023/03/20 04:25:08;;;;;;;8.47;7.70;;;;;;;9.68;67.94;96476.78;5029158;28;20466;-69
2023/03/20 04:27:34;;;;;;;9.93;7.37;;;;;;;9.75;67.44;96480.84;5028989;28;20168;-70
2023/03/20 04:29:59;;;;;;;14.07;7.87;;;;;;;9.73;67.59;96484.47;5029240;28;20507;-68
2023/03/20 04:32:25;;;;;;;13.93;7.30;;;;;;;9.80;67.67;96487.69;5029323;28;20663;-68
2023/03/20 04:34:51;;;;;;;9.30;7.23;;;;;;;9.91;66.78;96494.22;5029272;28;20562;-69
2023/03/20 04:37:17;;;;;;;6.97;6.27;;;;;;;9.84;67.26;96492.75;5028822;28;20202;-69
2023/03/20 04:39:42;;;;;;;6.93;6.33;;;;;;;9.82;67.31;96486.72;5028344;28;20252;-70
2023/03/20 04:42:08;;;;;;;7.93;7.03;;;;;;;9.86;67.52;96490.94;5029168;28;20784;-69
2023/03/20 04:44:34;;;;;;;8.10;7.30;;;;;;;9.77;67.15;96495.69;5029026;28;20159;-68
2023/03/20 04:47:00;;;;;;;7.40;6.70;;;;;;;9.78;67.87;96490.41;5028662;28;20198;-68
2023/03/20 04:49:25;;;;;;;7.80;7.00;;;;;;;9.81;67.42;96495.50;5028817;28;20171;-71
2023/03/20 04:51:52;;;;;;;10.57;7.33;;;;;;;9.84;67.67;96489.28;5028732;28;20894;-69
2023/03/20 04:54:17;;;;;;;12.63;6.87;;;;;;;9.93;67.45;96484.53;5028648;28;20171;-68
2023/03/20 04:56:43;;;;;;;7.40;6.10;;;;;;;9.91;67.25;96483.72;5028730;28;20794;-70
2023/03/20 04:59:08;;;;;;;43.90;10.20;;;;;;;9.87;67.05;96484.75;5027469;28;20172;-70
2023/03/20 05:01:34;;;;;;;15.13;8.67;;;;;;;9.83;67.69;96487.59;5028463;28;20168;-70
2023/03/20 05:04:00;;;;;;;11.23;6.63;;;;;;;9.82;68.04;96486.72;5028539;28;20184;-70
2023/03/20 05:06:30;;;;;;;18.87;7.50;;;;;;;9.82;67.58;96489.34;5028139;28;20238;-70
2023/03/20 05:08:57;;;;;;;12.20;7.40;;;;;;;9.85;67.38;96497.09;5019411;28;20462;-69
2023/03/20 05:11:24;;;;;;;8.27;7.57;;;;;;;9.82;67.32;96501.59;5024679;28;20442;-69
2023/03/20 05:13:49;;;;;;;10.93;7.67;;;;;;;9.78;67.50;96498.25;5027773;28;21223;-69
2023/03/20 05:16:15;;;;;;;12.37;7.90;;;;;;;9.84;67.26;96503.25;5026416;28;20433;-69
2023/03/20 05:18:40;;;;;;;10.90;7.23;;;;;;;9.88;67.80;96496.97;5023451;28;20211;-70
2023/03/20 05:21:07;;;;;;;16.90;9.33;;;;;;;10.06;66.89;96495.41;5025279;28;20232;-70
2023/03/20 05:23:32;;;;;;;8.93;7.83;;;;;;;9.68;68.50;96491.66;5023725;28;20175;-69
2023/03/20 05:25:58;;;;;;;37.27;11.57;;;;;;;9.70;68.64;96497.69;5022953;28;20977;-70
2023/03/20 05:28:23;;;;;;;9.70;7.77;;;;;;;9.80;68.24;96483.31;5025797;28;20741;-68
2023/03/20 05:30:49;;;;;;;21.03;8.70;;;;;;;9.92;67.87;96481.97;5022444;28;20204;-68
2023/03/20 05:33:15;;;;;;;12.60;10.60;;;;;;;9.85;67.52;96481.38;5024126;28;20171;-69
2023/03/20 05:35:40;;;;;;;9.57;7.77;;;;;;;9.89;67.43;96488.19;5023244;28;20249;-69
2023/03/20 05:38:06;;;;;;;23.23;9.90;;;;;;;9.86;68.18;96492.72;5031325;28;20206;-68
2023/03/20 05:40:31;;;;;;;16.63;8.40;;;;;;;9.81;68.10;96484.19;5026726;28;20175;-69
2023/03/20 05:42:56;;;;;;;17.27;8.50;;;;;;;9.88;67.65;96488.25;5023096;28;20175;-70
2023/03/20 05:45:22;;;;;;;21.83;8.70;;;;;;;9.92;67.23;96489.81;5024257;28;20203;-67
2023/03/20 05:47:48;;;;;;;23.53;9.70;;;;;;;9.98;67.23;96499.22;5024245;28;20274;-69
2023/03/20 05:50:13;;;;;;;8.67;7.10;;;;;;;9.56;69.11;96505.22;5022990;28;20237;-69
2023/03/20 05:52:39;;;;;;;27.40;10.03;;;;;;;9.59;69.31;96508.59;5027339;28;20463;-68
2023/03/20 05:55:05;;;;;;;105.80;17.10;;;;;;;9.77;68.19;96511.41;5025713;28;20199;-68
2023/03/20 05:57:30;;;;;;;17.07;9.87;;;;;;;9.91;67.67;96507.31;5026068;28;20195;-68
2023/03/20 05:59:56;;;;;;;12.20;7.57;;;;;;;10.01;67.52;96509.59;5020557;28;20434;-69
2023/03/20 06:02:21;;;;;;;8.40;7.60;;;;;;;10.03;67.63;96507.75;5023961;28;20283;-69
2023/03/20 06:04:47;;;;;;;9.10;7.67;;;;;;;10.18;66.90;96512.38;5024703;28;20187;-69
2023/03/20 06:07:12;;;;;;;8.50;7.67;;;;;;;10.04;67.10;96519.94;5024310;28;20699;-71
2023/03/20 06:09:38;;;;;;;8.13;7.30;;;;;;;10.10;66.99;96524.94;5022950;28;20787;-70
2023/03/20 06:12:03;;;;;;;12.63;8.10;;;;;;;10.14;67.10;96521.31;5022805;28;20263;-70
2023/03/20 06:14:28;;;;;;;7.63;6.93;;;;;;;10.04;66.59;96523.44;5029989;28;20186;-71
2023/03/20 06:16:55;;;;;;;14.87;6.47;;;;;;;10.09;66.42;96537.22;5022454;28;20211;-69
2023/03/20 06:19:21;;;;;;;26.63;9.17;;;;;;;10.10;67.15;96538.91;5024661;28;20652;-70
2023/03/20 06:21:47;;;;;;;16.83;8.60;;;;;;;10.14;67.02;96537.03;5024775;28;20468;-70
2023/03/20 06:24:13;;;;;;;16.67;9.27;;;;;;;10.04;66.93;96540.91;5022396;28;20490;-67
2023/03/20 06:26:39;;;;;;;43.03;12.40;;;;;;;10.12;67.13;96549.34;5022756;28;20446;-70
2023/03/20 06:29:05;;;;;;;28.80;8.87;;;;;;;10.02;67.28;96545.41;5024483;28;20163;-69
2023/03/20 06:31:30;;;;;;;22.40;8.20;;;;;;;9.87;67.88;96542.44;5023731;28;20529;-69
2023/03/20 06:33:56;;;;;;;11.00;7.40;;;;;;;10.05;67.57;96535.63;5022220;28;20787;-71
2023/03/20 06:36:22;;;;;;;8.93;7.00;;;;;;;10.18;67.23;96538.59;5014500;28;20255;-68
2023/03/20 06:38:48;;;;;;;12.87;8.37;;;;;;;10.40;66.70;96535.16;5025396;28;20183;-71
2023/03/20 06:41:13;;;;;;;13.03;8.50;;;;;;;10.77;64.96;96527.47;5023283;28;20199;-70
2023/03/20 06:43:38;;;;;;;33.03;10.27;;;;;;;11.13;64.06;96528.56;5029706;28;21189;-70
2023/03/20 06:46:05;;;;;;;9.37;7.70;;;;;;;11.51;62.48;96541.75;5027700;28;20202;-70
2023/03/20 06:48:31;;;;;;;17.40;8.70;;;;;;;11.38;62.63;96542.28;5038597;28;20258;-71
2023/03/20 06:50:57;;;;;;;10.20;9.20;;;;;;;11.47;62.23;96551.53;5035021;28;20430;-69
2023/03/20 06:53:22;;;;;;;9.90;8.37;;;;;;;11.36;62.69;96546.78;5037353;28;20198;-69
2023/03/20 06:55:49;;;;;;;17.70;9.60;;;;;;;11.21;63.21;96547.44;5034206;28;20214;-69
2023/03/20 06:58:15;;;;;;;32.07;10.13;;;;;;;10.96;63.46;96551.16;5033901;28;20625;-70
2023/03/20 07:00:41;;;;;;;27.00;9.70;;;;;;;10.92;64.14;96543.47;5033482;28;20434;-69
2023/03/20 07:03:07;;;;;;;24.80;10.30;;;;;;;10.92;63.92;96557.44;5027433;28;20494;-70
2023/03/20 07:05:33;;;;;;;17.23;9.10;;;;;;;10.79;64.08;96551.00;5034911;28;20297;-70
2023/03/20 07:07:58;;;;;;;12.67;7.47;;;;;;;10.70;64.49;96551.38;5027541;28;20183;-69
2023/03/20 07:10:24;;;;;;;7.83;7.03;;;;;;;10.70;64.68;96556.63;5026505;28;21040;-69
2023/03/20 07:12:49;;;;;;;7.93;7.17;;;;;;;10.57;65.05;96558.94;5031616;28;20179;-69
2023/03/20 07:15:19;;;;;;;10.03;7.60;;;;;;;10.68;64.64;96556.72;5034101;28;20655;-69
2023/03/20 07:17:44;;;;;;;12.80;6.93;;;;;;;10.69;64.09;96562.81;5034385;28;20195;-70
2023/03/20 07:20:11;;;;;;;29.43;8.83;;;;;;;10.64;64.34;96560.38;5028131;28;20437;-69
2023/03/20 07:22:38;;;;;;;12.20;6.13;;;;;;;10.71;64.00;96559.19;5027698;28;20183;-69
2023/03/20 07:25:05;;;;;;;19.70;7.17;;;;;;;10.69;63.75;96555.78;5028144;28;20446;-70
2023/03/20 07:27:30;;;;;;;29.40;7.90;;;;;;;10.75;63.92;96552.06;5029370;28;20499;-69
2023/03/20 07:29:55;;;;;;;17.27;6.40;;;;;;;10.72;64.23;96545.16;5030074;28;20429;-68
2023/03/20 07:32:21;;;;;;;33.63;9.67;;;;;;;10.79;63.95;96546.63;5031028;28;20187;-69
2023/03/20 07:34:48;;;;;;;11.73;6.40;;;;;;;10.78;64.23;96544.06;5031703;28;20199;-69
2023/03/20 07:37:14;;;;;;;14.90;6.03;;;;;;;10.78;64.59;96550.16;5029275;28;20203;-71
2023/03/20 07:39:39;;;;;;;9.60;5.90;;;;;;;10.89;64.04;96557.59;5027526;28;20445;-69
2023/03/20 07:42:05;;;;;;;7.77;6.97;;;;;;;10.86;64.12;96556.84;5028805;28;20278;-71
2023/03/20 07:44:31;;;;;;;30.13;8.60;;;;;;;10.94;63.76;96557.41;5028644;28;20186;-69
2023/03/20 07:46:56;;;;;;;39.90;8.70;;;;;;;11.01;63.66;96556.22;5026800;28;20175;-69
2023/03/20 07:49:22;;;;;;;66.27;12.07;;;;;;;11.05;63.91;96555.13;5028552;28;20175;-69
2023/03/20 07:51:49;;;;;;;35.97;8.93;;;;;;;11.18;63.45;96552.84;5027622;28;20613;-71
2023/03/20 07:54:14;;;;;;;19.63;7.97;;;;;;;11.33;63.19;96556.56;5029131;28;20176;-69
2023/03/20 07:56:40;;;;;;;24.17;7.83;;;;;;;11.49;62.11;96560.22;5027365;28;20487;-70
2023/03/20 07:59:06;;;;;;;14.83;8.07;;;;;;;11.52;62.35;96564.47;5028460;28;20179;-70
2023/03/20 08:01:32;;;;;;;29.60;7.87;;;;;;;11.52;62.37;96565.31;5027239;28;20536;-69
2023/03/20 08:03:58;;;;;;;19.90;6.93;;;;;;;11.60;61.96;96560.59;5028129;28;20242;-70
2023/03/20 08:06:24;;;;;;;10.30;5.80;;;;;;;11.62;61.12;96557.88;5020397;28;20290;-68
2023/03/20 08:08:51;;;;;;;5.80;4.57;;;;;;;11.99;60.43;96557.06;5026888;28;20575;-69
2023/03/20 08:11:17;;;;;;;6.17;5.30;;;;;;;12.33;59.10;96550.22;5035576;28;20237;-69
2023/03/20 08:13:42;;;;;;;8.27;3.90;;;;;;;12.33;57.54;96551.97;5026500;28;20950;-69
2023/03/20 08:16:08;;;;;;;8.63;4.40;;;;;;;12.48;56.83;96559.97;5030151;28;20235;-70
2023/03/20 08:18:34;;;;;;;7.30;4.73;;;;;;;12.68;56.27;96555.50;5030768;28;20226;-70
2023/03/20 08:20:59;;;;;;;6.43;3.93;;;;;;;12.60;56.51;96568.22;5027730;28;20260;-70
2023/03/20 08:23:25;;;;;;;13.37;4.10;;;;;;;12.83;55.58;96570.56;5032525;28;20252;-68
2023/03/20 08:25:53;;;;;;;16.37;6.20;;;;;;;12.95;54.69;96555.91;5026481;28;20846;-68
2023/03/20 08:28:19;;;;;;;14.10;5.03;;;;;;;12.99;54.66;96557.47;5035346;28;20430;-71
2023/03/20 08:30:44;;;;;;;17.00;5.33;;;;;;;13.21;54.78;96554.56;5027053;28;20442;-70
2023/03/20 08:33:11;;;;;;;6.70;4.90;;;;;;;13.18;54.71;96549.47;5029813;28;20988;-70
2023/03/20 08:35:37;;;;;;;11.93;4.50;;;;;;;13.26;53.67;96556.97;5034057;28;20248;-70
2023/03/20 08:38:02;;;;;;;17.60;6.00;;;;;;;13.50;53.70;96560.97;5030031;28;20631;-67
2023/03/20 08:40:27;;;;;;;10.73;5.00;;;;;;;13.54;52.88;96561.69;5026256;28;20240;-67
2023/03/20 08:42:53;;;;;;;12.57;4.90;;;;;;;13.58;52.71;96559.72;5033586;28;20175;-70
2023/03/20 08:45:18;;;;;;;7.20;5.20;;;;;;;13.76;52.69;96553.44;5032851;28;20211;-70
2023/03/20 08:47:47;;;;;;;5.50;4.30;;;;;;;13.29;53.02;96555.03;5028114;28;20183;-71
2023/03/20 08:50:13;;;;;;;4.83;3.50;;;;;;;13.33;53.42;96548.69;5029240;28;20179;-69
2023/03/20 08:52:42;;;;;;;9.90;4.17;;;;;;;13.58;53.27;96539.47;5029694;28;20535;-69
2023/03/20 08:55:13;;;;;;;7.33;4.70;;;;;;;14.14;51.64;96542.59;5033691;28;20528;-70
2023/03/20 08:57:39;;;;;;;5.60;3.10;;;;;;;14.62;50.73;96540.75;5027876;28;20845;-71
2023/03/20 09:00:06;;;;;;;4.87;3.50;;;;;;;15.35;48.20;96551.41;5031599;28;20553;-68
2023/03/20 09:02:32;;;;;;;6.07;3.00;;;;;;;14.88;48.35;96539.25;5031604;28;20504;-69
2023/03/20 09:04:57;;;;;;;14.23;4.80;;;;;;;15.12;50.39;96549.28;5032809;28;20801;-70
2023/03/20 09:07:23;;;;;;;15.67;4.90;;;;;;;14.90;48.94;96537.34;5027592;28;20502;-69
2023/03/20 09:09:48;;;;;;;22.43;4.00;;;;;;;14.73;48.47;96535.72;5025628;28;20175;-70
2023/03/20 09:12:14;;;;;;;30.27;5.37;;;;;;;14.55;48.28;96547.34;5030497;28;20175;-71
2023/03/20 09:14:40;;;;;;;18.07;5.10;;;;;;;14.88;48.25;96541.91;5027847;28;20203;-71
2023/03/20 09:17:06;;;;;;;15.23;4.57;;;;;;;15.25;47.02;96540.53;5023156;28;20195;-71
2023/03/20 09:19:32;;;;;;;146.90;20.27;;;;;;;15.69;46.29;96543.22;5032909;28;20452;-71
2023/03/20 09:21:58;;;;;;;13.57;4.07;;;;;;;16.15;44.76;96545.66;5026974;28;20763;-70
2023/03/20 09:24:24;;;;;;;6.00;3.17;;;;;;;16.05;44.49;96540.09;5032206;28;20537;-71
2023/03/20 09:26:51;;;;;;;9.47;3.30;;;;;;;16.46;44.17;96544.50;5020915;28;20448;-70
2023/03/20 09:29:16;;;;;;;4.43;3.53;;;;;;;16.43;43.67;96548.22;5025564;28;20192;-68
2023/03/20 09:31:42;;;;;;;9.80;3.73;;;;;;;16.27;43.49;96547.50;5024318;28;20426;-70
2023/03/20 09:34:07;;;;;;;10.10;3.00;;;;;;;15.81;44.72;96548.63;5025332;28;20172;-68
2023/03/20 09:36:33;;;;;;;7.70;4.30;;;;;;;15.54;45.57;96545.00;5026291;28;20199;-70
2023/03/20 09:38:58;;;;;;;5.50;3.63;;;;;;;15.14;46.32;96548.28;5040334;28;20191;-69
2023/03/20 09:41:26;;;;;;;10.37;4.70;;;;;;;14.98;47.01;96550.97;5030197;28;20214;-70
2023/03/20 09:44:31;;;;;;;21.80;6.23;;;;;;;14.58;47.88;96555.94;5027928;28;20871;-70
2023/03/20 09:46:56;;;;;;;4.80;3.10;;;;;;;14.28;48.35;96558.50;5021455;28;20908;-70
2023/03/20 09:50:00;;;;;;;6.10;3.53;;;;;;;14.26;48.87;96564.81;5029780;28;20430;-69
2023/03/20 09:52:36;;;;;;;11.33;3.80;;;;;;;14.21;49.16;96551.84;5038523;28;20181;-70
2023/03/20 09:55:10;;;;;;;17.30;5.10;;;;;;;13.97;49.89;96554.06;5026895;28;20441;-70
2023/03/20 09:57:39;;;;;;;8.83;4.23;;;;;;;13.75;50.01;96559.69;5027941;28;20454;-69
2023/03/20 10:00:27;;;;;;;8.67;4.43;;;;;;;13.65;51.04;96554.03;5026824;28;20406;-69
2023/03/20 10:02:58;;;;;;;16.10;5.03;;;;;;;13.68;49.97;96564.44;5025466;28;20426;-70
2023/03/20 10:05:25;;;;;;;11.17;4.53;;;;;;;13.47;50.91;96568.22;5027294;28;20986;-69
2023/03/20 10:07:58;;;;;;;24.70;6.70;;;;;;;13.28;51.88;96558.63;5027219;28;21213;-70
2023/03/20 10:10:41;;;;;;;12.37;7.27;;;;;;;13.19;52.33;96556.44;5027376;28;20463;-70
2023/03/20 10:13:34;;;;;;;16.20;5.23;;;;;;;13.23;52.11;96565.00;5026942;28;20405;-70
2023/03/20 10:15:59;;;;;;;29.13;5.70;;;;;;;13.23;52.19;96557.97;5026356;28;20422;-70
2023/03/20 10:18:30;;;;;;;17.40;6.27;;;;;;;13.19;52.65;96564.34;5026893;28;20825;-70
2023/03/20 10:21:21;;;;;;;17.63;4.63;;;;;;;13.10;51.97;96560.38;5026810;28;20173;-69
2023/03/20 10:24:02;;;;;;;9.43;2.67;;;;;;;12.95;51.24;96563.81;5026698;28;20475;-70
2023/03/20 10:26:32;;;;;;;9.80;3.67;;;;;;;13.11;50.53;96566.53;5026169;28;20472;-71
2023/03/20 10:29:00;;;;;;;6.07;2.97;;;;;;;13.00;49.58;96559.16;5026224;28;20481;-70
2023/03/20 10:31:49;;;;;;;3.60;1.83;;;;;;;13.09;49.39;96565.75;5026147;28;20421;-70
2023/03/20 10:34:43;;;;;;;2.27;1.60;;;;;;;13.12;48.85;96558.53;5026350;28;20406;-69
2023/03/20 10:37:36;;;;;;;6.73;1.70;;;;;;;13.12;48.29;96558.53;5024216;28;20544;-69
2023/03/20 10:40:26;;;;;;;5.17;1.63;;;;;;;13.08;48.21;96556.97;5026442;28;20417;-69
2023/03/20 10:42:54;;;;;;;3.23;1.60;;;;;;;13.16;47.99;96561.88;5026701;28;20438;-69
2023/03/20 10:45:45;;;;;;;6.83;2.13;;;;;;;13.18;47.27;96557.38;5026129;28;20450;-69
2023/03/20 10:48:19;;;;;;;34.37;5.93;;;;;;;13.15;48.43;96552.25;5026222;28;20407;-69
2023/03/20 10:50:55;;;;;;;8.23;2.27;;;;;;;13.20;47.94;96542.31;5026344;28;20918;-69
2023/03/20 10:53:40;;;;;;;2.80;2.20;;;;;;;13.37;48.42;96551.16;5027097;28;20418;-70
2023/03/20 10:56:11;;;;;;;6.27;1.60;;;;;;;13.44;47.64;96531.44;5021298;28;20533;-70
2023/03/20 10:58:43;;;;;;;17.83;3.40;;;;;;;13.53;47.55;96533.59;5025840;28;20525;-69
2023/03/20 11:01:09;;;;;;;14.77;3.00;;;;;;;13.49;46.82;96524.16;5024440;28;20444;-69
2023/03/20 11:03:40;;;;;;;8.60;1.93;;;;;;;13.48;47.27;96525.06;5026343;28;20418;-69
2023/03/20 11:06:27;;;;;;;7.47;2.97;;;;;;;13.46;46.57;96529.56;5025890;28;20302;-69
2023/03/20 11:08:52;;;;;;;5.87;1.90;;;;;;;13.29;46.50;96535.75;5026133;28;20544;-71
2023/03/20 11:11:27;;;;;;;6.30;2.07;;;;;;;13.42;46.49;96528.91;5026229;28;20485;-69
2023/03/20 11:13:53;;;;;;;5.87;1.53;;;;;;;13.39;46.42;96531.69;5025952;28;20176;-69
2023/03/20 11:16:22;;;;;;;6.83;2.00;;;;;;;13.44;45.69;96534.94;5026029;28;20441;-70
2023/03/20 11:18:49;;;;;;;8.73;2.00;;;;;;;13.53;46.39;96538.84;5025920;28;20536;-69
2023/03/20 11:21:19;;;;;;;4.20;1.80;;;;;;;13.66;46.34;96537.28;5025873;28;20504;-69
2023/03/20 11:23:46;;;;;;;2.47;1.87;;;;;;;13.51;45.30;96535.44;5025931;28;20410;-69
2023/03/20 11:26:15;;;;;;;6.53;2.57;;;;;;;13.47;45.86;96545.31;5025716;28;20967;-69
2023/03/20 11:28:45;;;;;;;9.20;1.80;;;;;;;13.47;44.98;96552.38;5025496;28;20406;-68
2023/03/20 11:31:10;;;;;;;6.67;1.90;;;;;;;13.36;45.98;96549.47;5025682;28;21001;-69
2023/03/20 11:33:42;;;;;;;6.87;2.10;;;;;;;13.33;46.16;96542.56;5025998;28;20414;-69
2023/03/20 11:36:21;;;;;;;5.40;2.30;;;;;;;13.49;45.66;96546.09;5025431;28;20241;-69
2023/03/20 11:38:48;;;;;;;6.77;1.83;;;;;;;13.47;46.15;96552.38;5025823;28;20465;-69
2023/03/20 11:41:27;;;;;;;2.60;1.70;;;;;;;13.40;45.58;96553.66;5027683;28;20445;-68
2023/03/20 11:43:53;;;;;;;9.50;2.63;;;;;;;13.22;45.77;96553.63;5045565;28;20458;-69